sensor_id;sensor_type;location;lat;lon;timestamp;pressure;altitude;pressure_sealevel;temperature;humidity
40982;BME280;26708;50.304;19.028;2023-03-01T00:00:06;99594.47;;;0.72;54.02
40982;BME280;26708;50.304;19.028;2023-03-01T00:02:19;99591.81;;;0.71;53.65
40982;BME280;26708;50.304;19.028;2023-03-01T00:04:24;99474.31;;;-0.08;53.76
40982;BME280;26708;50.304;19.028;2023-03-01T00:06:28;99439.56;;;-0.16;53.44
40982;BME280;26708;50.304;19.028;2023-03-01T00:08:34;99594.56;;;0.74;53.32
40982;BME280;26708;50.304;19.028;2023-03-01T00:10:39;99371.91;;;-0.47;53.31
40982;BME280;26708;50.304;19.028;2023-03-01T00:12:43;99593.81;;;0.76;53.38
40982;BME280;26708;50.304;19.028;2023-03-01T00:14:49;99556.84;;;0.42;53.47
40982;BME280;26708;50.304;19.028;2023-03-01T00:16:53;99491.13;;;0.17;53.47
40982;BME280;26708;50.304;19.028;2023-03-01T00:19:02;99451.06;;;-0.10;53.54
40982;BME280;26708;50.304;19.028;2023-03-01T00:21:07;99469.72;;;-0.14;53.44
40982;BME280;26708;50.304;19.028;2023-03-01T00:23:14;99516.19;;;0.21;53.51
40982;BME280;26708;50.304;19.028;2023-03-01T00:25:18;99587.72;;;0.74;53.54
40982;BME280;26708;50.304;19.028;2023-03-01T00:27:24;99598.88;;;0.75;53.35
40982;BME280;26708;50.304;19.028;2023-03-01T00:29:28;99596.25;;;0.73;53.40
40982;BME280;26708;50.304;19.028;2023-03-01T00:31:33;99522.94;;;0.35;53.30
40982;BME280;26708;50.304;19.028;2023-03-01T00:33:39;99471.41;;;0.02;53.65
40982;BME280;26708;50.304;19.028;2023-03-01T00:35:46;99467.72;;;-0.19;53.47
40982;BME280;26708;50.304;19.028;2023-03-01T00:37:51;99583.69;;;0.63;53.55
40982;BME280;26708;50.304;19.028;2023-03-01T00:39:59;99590.94;;;0.70;53.54
40982;BME280;26708;50.304;19.028;2023-03-01T00:42:07;99581.19;;;0.65;53.56
40982;BME280;26708;50.304;19.028;2023-03-01T00:44:11;99576.63;;;0.59;53.48
40982;BME280;26708;50.304;19.028;2023-03-01T00:46:19;99581.59;;;0.56;53.59
40982;BME280;26708;50.304;19.028;2023-03-01T00:48:25;99554.06;;;0.39;53.92
40982;BME280;26708;50.304;19.028;2023-03-01T00:50:29;99490.53;;;0.07;53.89
40982;BME280;26708;50.304;19.028;2023-03-01T00:52:37;99483.44;;;0.03;53.86
40982;BME280;26708;50.304;19.028;2023-03-01T00:54:42;99583.38;;;0.57;54.10
40982;BME280;26708;50.304;19.028;2023-03-01T00:56:47;99539.44;;;0.38;53.96
40982;BME280;26708;50.304;19.028;2023-03-01T00:58:54;99573.56;;;0.50;53.86
40982;BME280;26708;50.304;19.028;2023-03-01T01:01:00;99428.13;;;-0.37;53.90
40982;BME280;26708;50.304;19.028;2023-03-01T01:03:05;99568.41;;;0.50;53.84
40982;BME280;26708;50.304;19.028;2023-03-01T01:05:11;99428.59;;;-0.44;53.73
40982;BME280;26708;50.304;19.028;2023-03-01T01:07:15;99576.63;;;0.59;53.86
40982;BME280;26708;50.304;19.028;2023-03-01T01:09:28;99438.13;;;-0.27;53.79
40982;BME280;26708;50.304;19.028;2023-03-01T01:11:35;99462.03;;;-0.28;53.83
40982;BME280;26708;50.304;19.028;2023-03-01T01:13:41;99579.66;;;0.52;53.88
40982;BME280;26708;50.304;19.028;2023-03-01T01:15:47;99582.06;;;0.49;53.86
40982;BME280;26708;50.304;19.028;2023-03-01T01:17:54;99561.41;;;0.32;53.57
40982;BME280;26708;50.304;19.028;2023-03-01T01:19:59;99589.63;;;0.46;53.57
40982;BME280;26708;50.304;19.028;2023-03-01T01:22:04;99524.94;;;0.09;53.73
40982;BME280;26708;50.304;19.028;2023-03-01T01:24:10;99390.09;;;-0.75;53.71
40982;BME280;26708;50.304;19.028;2023-03-01T01:26:20;99561.56;;;0.35;53.78
40982;BME280;26708;50.304;19.028;2023-03-01T01:28:26;99559.22;;;0.39;53.88
40982;BME280;26708;50.304;19.028;2023-03-01T01:30:31;99561.75;;;0.38;53.68
40982;BME280;26708;50.304;19.028;2023-03-01T01:32:36;99386.38;;;-0.80;53.49
40982;BME280;26708;50.304;19.028;2023-03-01T01:34:41;99554.66;;;0.34;53.61
40982;BME280;26708;50.304;19.028;2023-03-01T01:36:48;99397.47;;;-0.50;53.62
40982;BME280;26708;50.304;19.028;2023-03-01T01:38:55;99544.13;;;0.29;53.87
40982;BME280;26708;50.304;19.028;2023-03-01T01:40:59;99404.84;;;-0.56;53.87
40982;BME280;26708;50.304;19.028;2023-03-01T01:43:16;99361.19;;;-0.71;53.57
40982;BME280;26708;50.304;19.028;2023-03-01T01:45:28;99529.47;;;0.28;53.74
40982;BME280;26708;50.304;19.028;2023-03-01T01:47:35;99524.31;;;0.28;54.13
40982;BME280;26708;50.304;19.028;2023-03-01T01:49:44;99470.09;;;-0.06;54.41
40982;BME280;26708;50.304;19.028;2023-03-01T01:52:00;99485.31;;;0.05;54.20
40982;BME280;26708;50.304;19.028;2023-03-01T01:54:16;99479.84;;;-0.01;54.22
40982;BME280;26708;50.304;19.028;2023-03-01T01:56:26;99482.25;;;-0.04;54.25
40982;BME280;26708;50.304;19.028;2023-03-01T01:58:37;99539.69;;;0.27;54.27
40982;BME280;26708;50.304;19.028;2023-03-01T02:00:43;99476.06;;;-0.07;54.32
40982;BME280;26708;50.304;19.028;2023-03-01T02:02:54;99513.63;;;0.21;54.28
40982;BME280;26708;50.304;19.028;2023-03-01T02:05:09;99508.31;;;0.18;54.33
40982;BME280;26708;50.304;19.028;2023-03-01T02:07:20;99316.16;;;-0.96;54.48
40982;BME280;26708;50.304;19.028;2023-03-01T02:09:28;99446.84;;;-0.40;54.50
40982;BME280;26708;50.304;19.028;2023-03-01T02:11:36;99533.34;;;0.21;54.70
40982;BME280;26708;50.304;19.028;2023-03-01T02:13:44;99528.19;;;0.21;54.68
40982;BME280;26708;50.304;19.028;2023-03-01T02:15:53;99482.16;;;-0.05;54.70
40982;BME280;26708;50.304;19.028;2023-03-01T02:17:58;99515.81;;;0.14;54.46
40982;BME280;26708;50.304;19.028;2023-03-01T02:20:16;99523.50;;;0.14;54.62
40982;BME280;26708;50.304;19.028;2023-03-01T02:22:31;99533.38;;;0.22;54.51
40982;BME280;26708;50.304;19.028;2023-03-01T02:24:53;99499.53;;;-0.01;54.61
40982;BME280;26708;50.304;19.028;2023-03-01T02:27:12;99530.28;;;0.12;54.74
40982;BME280;26708;50.304;19.028;2023-03-01T02:29:21;99408.63;;;-0.80;54.80
40982;BME280;26708;50.304;19.028;2023-03-01T02:31:26;99386.38;;;-0.80;54.92
40982;BME280;26708;50.304;19.028;2023-03-01T02:33:44;99553.25;;;0.09;54.97
40982;BME280;26708;50.304;19.028;2023-03-01T02:35:53;99546.34;;;0.08;55.09
40982;BME280;26708;50.304;19.028;2023-03-01T02:38:01;99510.03;;;-0.29;55.23
40982;BME280;26708;50.304;19.028;2023-03-01T02:40:12;99539.41;;;0.07;55.23
40982;BME280;26708;50.304;19.028;2023-03-01T02:42:25;99304.75;;;-1.32;55.25
40982;BME280;26708;50.304;19.028;2023-03-01T02:44:37;99279.25;;;-1.59;55.55
40982;BME280;26708;50.304;19.028;2023-03-01T02:46:47;99426.66;;;-0.64;55.48
40982;BME280;26708;50.304;19.028;2023-03-01T02:48:56;99534.50;;;-0.05;55.36
40982;BME280;26708;50.304;19.028;2023-03-01T02:51:09;99295.47;;;-1.44;55.17
40982;BME280;26708;50.304;19.028;2023-03-01T02:55:49;99506.50;;;-0.31;55.31
40982;BME280;26708;50.304;19.028;2023-03-01T02:57:56;99523.63;;;-0.15;55.57
40982;BME280;26708;50.304;19.028;2023-03-01T03:00:08;99392.19;;;-0.98;55.63
40982;BME280;26708;50.304;19.028;2023-03-01T03:02:23;99502.13;;;-0.32;55.50
40982;BME280;26708;50.304;19.028;2023-03-01T03:04:53;99535.63;;;-0.16;55.66
40982;BME280;26708;50.304;19.028;2023-03-01T03:06:58;99486.19;;;-0.41;55.75
40982;BME280;26708;50.304;19.028;2023-03-01T03:09:02;99480.00;;;-0.44;55.66
40982;BME280;26708;50.304;19.028;2023-03-01T03:11:10;99493.47;;;-0.34;55.79
40982;BME280;26708;50.304;19.028;2023-03-01T03:13:15;99297.38;;;-1.56;55.68
40982;BME280;26708;50.304;19.028;2023-03-01T03:15:24;99379.78;;;-0.91;55.60
40982;BME280;26708;50.304;19.028;2023-03-01T03:17:31;99532.03;;;-0.03;55.68
40982;BME280;26708;50.304;19.028;2023-03-01T03:19:35;99538.13;;;-0.01;55.73
40982;BME280;26708;50.304;19.028;2023-03-01T03:21:40;99374.66;;;-0.91;55.53
40982;BME280;26708;50.304;19.028;2023-03-01T03:23:45;99529.59;;;-0.00;55.62
40982;BME280;26708;50.304;19.028;2023-03-01T03:25:50;99321.53;;;-1.22;55.39
40982;BME280;26708;50.304;19.028;2023-03-01T03:27:56;99525.50;;;0.03;55.53
40982;BME280;26708;50.304;19.028;2023-03-01T03:30:02;99511.50;;;-0.02;55.42
40982;BME280;26708;50.304;19.028;2023-03-01T03:32:12;99511.75;;;0.03;55.54
40982;BME280;26708;50.304;19.028;2023-03-01T03:34:17;99509.97;;;0.02;55.42
40982;BME280;26708;50.304;19.028;2023-03-01T03:36:24;99395.63;;;-0.67;55.13
40982;BME280;26708;50.304;19.028;2023-03-01T03:38:29;99372.97;;;-0.90;55.23
40982;BME280;26708;50.304;19.028;2023-03-01T03:40:36;99324.78;;;-1.10;55.21
40982;BME280;26708;50.304;19.028;2023-03-01T03:42:43;99477.66;;;-0.25;55.30
40982;BME280;26708;50.304;19.028;2023-03-01T03:44:47;99379.00;;;-0.90;55.45
40982;BME280;26708;50.304;19.028;2023-03-01T03:46:52;99514.31;;;-0.13;55.53
40982;BME280;26708;50.304;19.028;2023-03-01T03:49:00;99279.25;;;-1.59;55.69
40982;BME280;26708;50.304;19.028;2023-03-01T03:51:05;99498.13;;;-0.27;55.71
40982;BME280;26708;50.304;19.028;2023-03-01T03:53:11;99525.06;;;-0.20;55.91
40982;BME280;26708;50.304;19.028;2023-03-01T03:55:17;99546.28;;;-0.24;55.75
40982;BME280;26708;50.304;19.028;2023-03-01T03:57:22;99484.19;;;-0.46;55.92
40982;BME280;26708;50.304;19.028;2023-03-01T03:59:27;99454.28;;;-0.60;55.98
40982;BME280;26708;50.304;19.028;2023-03-01T04:01:32;99364.97;;;-1.11;56.04
40982;BME280;26708;50.304;19.028;2023-03-01T04:03:40;99477.19;;;-0.49;56.02
40982;BME280;26708;50.304;19.028;2023-03-01T04:05:51;99371.84;;;-1.10;55.85
40982;BME280;26708;50.304;19.028;2023-03-01T04:10:21;99321.91;;;-1.31;55.78
40982;BME280;26708;50.304;19.028;2023-03-01T04:12:25;99357.00;;;-1.15;55.65
40982;BME280;26708;50.304;19.028;2023-03-01T04:14:31;99373.47;;;-1.12;55.93
40982;BME280;26708;50.304;19.028;2023-03-01T04:16:35;99343.50;;;-1.27;55.88
40982;BME280;26708;50.304;19.028;2023-03-01T04:18:40;99412.28;;;-0.91;56.06
40982;BME280;26708;50.304;19.028;2023-03-01T04:20:46;99521.03;;;-0.31;56.00
40982;BME280;26708;50.304;19.028;2023-03-01T04:22:58;99319.31;;;-1.61;55.97
40982;BME280;26708;50.304;19.028;2023-03-01T04:25:11;99230.84;;;-1.98;56.09
40982;BME280;26708;50.304;19.028;2023-03-01T04:27:17;99360.78;;;-1.39;56.12
40982;BME280;26708;50.304;19.028;2023-03-01T04:29:21;99475.97;;;-0.55;56.14
40982;BME280;26708;50.304;19.028;2023-03-01T04:31:26;99473.25;;;-0.58;56.11
40982;BME280;26708;50.304;19.028;2023-03-01T04:33:31;99348.53;;;-1.29;55.92
40982;BME280;26708;50.304;19.028;2023-03-01T04:35:36;99405.38;;;-0.92;55.91
40982;BME280;26708;50.304;19.028;2023-03-01T04:37:42;99520.13;;;-0.32;56.08
40982;BME280;26708;50.304;19.028;2023-03-01T04:39:50;99502.88;;;-0.34;56.13
40982;BME280;26708;50.304;19.028;2023-03-01T04:41:54;99348.09;;;-1.22;56.12
40982;BME280;26708;50.304;19.028;2023-03-01T04:43:59;99395.09;;;-0.92;56.17
40982;BME280;26708;50.304;19.028;2023-03-01T04:46:07;99303.66;;;-1.51;56.20
40982;BME280;26708;50.304;19.028;2023-03-01T04:48:13;99273.06;;;-1.63;56.01
40982;BME280;26708;50.304;19.028;2023-03-01T04:50:19;99495.88;;;-0.37;56.08
40982;BME280;26708;50.304;19.028;2023-03-01T04:52:25;99487.25;;;-0.37;56.06
40982;BME280;26708;50.304;19.028;2023-03-01T04:54:31;99499.66;;;-0.30;56.12
40982;BME280;26708;50.304;19.028;2023-03-01T04:56:38;99477.88;;;-0.37;56.19
40982;BME280;26708;50.304;19.028;2023-03-01T04:58:45;99488.28;;;-0.50;56.02
40982;BME280;26708;50.304;19.028;2023-03-01T05:00:49;99482.81;;;-0.40;55.96
40982;BME280;26708;50.304;19.028;2023-03-01T05:02:56;99492.75;;;-0.31;55.88
40982;BME280;26708;50.304;19.028;2023-03-01T05:05:04;99498.78;;;-0.31;55.66
40982;BME280;26708;50.304;19.028;2023-03-01T05:07:09;99495.22;;;-0.33;55.79
40982;BME280;26708;50.304;19.028;2023-03-01T05:09:20;99451.00;;;-0.58;55.88
40982;BME280;26708;50.304;19.028;2023-03-01T05:11:25;99477.28;;;-0.47;56.06
40982;BME280;26708;50.304;19.028;2023-03-01T05:13:38;99273.97;;;-1.77;56.10
40982;BME280;26708;50.304;19.028;2023-03-01T05:15:44;99375.31;;;-1.09;56.16
40982;BME280;26708;50.304;19.028;2023-03-01T05:17:49;99485.41;;;-0.40;56.29
40982;BME280;26708;50.304;19.028;2023-03-01T05:19:55;99504.28;;;-0.39;56.27
40982;BME280;26708;50.304;19.028;2023-03-01T05:22:00;99474.97;;;-0.43;56.33
40982;BME280;26708;50.304;19.028;2023-03-01T05:24:08;99478.34;;;-0.44;56.50
40982;BME280;26708;50.304;19.028;2023-03-01T05:26:14;99345.28;;;-1.26;56.45
40982;BME280;26708;50.304;19.028;2023-03-01T05:28:20;99463.38;;;-0.51;56.59
40982;BME280;26708;50.304;19.028;2023-03-01T05:30:28;99482.53;;;-0.46;56.59
40982;BME280;26708;50.304;19.028;2023-03-01T05:32:36;99397.16;;;-1.01;56.49
40982;BME280;26708;50.304;19.028;2023-03-01T05:34:41;99304.25;;;-1.55;56.60
40982;BME280;26708;50.304;19.028;2023-03-01T05:36:48;99488.53;;;-0.45;56.56
40982;BME280;26708;50.304;19.028;2023-03-01T05:38:54;99493.66;;;-0.45;56.41
40982;BME280;26708;50.304;19.028;2023-03-01T05:40:58;99489.63;;;-0.56;56.51
40982;BME280;26708;50.304;19.028;2023-03-01T05:43:04;99338.94;;;-1.47;56.50
40982;BME280;26708;50.304;19.028;2023-03-01T05:45:10;99491.75;;;-0.64;56.54
40982;BME280;26708;50.304;19.028;2023-03-01T05:47:18;99414.78;;;-1.07;56.48
40982;BME280;26708;50.304;19.028;2023-03-01T05:49:24;99505.06;;;-0.56;56.41
40982;BME280;26708;50.304;19.028;2023-03-01T05:51:29;99513.56;;;-0.57;56.42
40982;BME280;26708;50.304;19.028;2023-03-01T05:53:34;99483.28;;;-0.77;56.66
40982;BME280;26708;50.304;19.028;2023-03-01T05:55:40;99518.72;;;-0.57;56.52
40982;BME280;26708;50.304;19.028;2023-03-01T05:57:49;99405.53;;;-1.20;56.56
40982;BME280;26708;50.304;19.028;2023-03-01T05:59:53;99432.75;;;-1.07;56.57
40982;BME280;26708;50.304;19.028;2023-03-01T06:01:59;99467.53;;;-0.69;56.55
40982;BME280;26708;50.304;19.028;2023-03-01T06:04:06;99470.94;;;-0.68;56.71
40982;BME280;26708;50.304;19.028;2023-03-01T06:06:11;99513.09;;;-0.50;56.93
40982;BME280;26708;50.304;19.028;2023-03-01T06:08:16;99501.13;;;-0.50;57.10
40982;BME280;26708;50.304;19.028;2023-03-01T06:10:22;99472.97;;;-0.63;57.07
40982;BME280;26708;50.304;19.028;2023-03-01T06:12:30;99369.69;;;-1.18;56.83
40982;BME280;26708;50.304;19.028;2023-03-01T06:14:36;99507.03;;;-0.36;56.84
40982;BME280;26708;50.304;19.028;2023-03-01T06:16:41;99463.19;;;-0.70;56.91
40982;BME280;26708;50.304;19.028;2023-03-01T06:18:45;99443.50;;;-0.69;56.96
40982;BME280;26708;50.304;19.028;2023-03-01T06:20:55;99308.84;;;-1.50;56.82
40982;BME280;26708;50.304;19.028;2023-03-01T06:23:00;99524.09;;;-0.22;56.80
40982;BME280;26708;50.304;19.028;2023-03-01T06:25:06;99508.25;;;-0.30;56.60
40982;BME280;26708;50.304;19.028;2023-03-01T06:27:12;99520.91;;;-0.18;56.95
40982;BME280;26708;50.304;19.028;2023-03-01T06:29:17;99516.88;;;-0.13;56.78
40982;BME280;26708;50.304;19.028;2023-03-01T06:31:21;99521.41;;;-0.09;56.53
40982;BME280;26708;50.304;19.028;2023-03-01T06:33:27;99489.06;;;-0.20;56.53
40982;BME280;26708;50.304;19.028;2023-03-01T06:35:32;99521.50;;;0.08;55.90
40982;BME280;26708;50.304;19.028;2023-03-01T06:37:39;99403.81;;;-0.44;55.88
40982;BME280;26708;50.304;19.028;2023-03-01T06:39:45;99509.13;;;0.33;55.93
40982;BME280;26708;50.304;19.028;2023-03-01T06:41:50;99502.78;;;0.42;55.71
40982;BME280;26708;50.304;19.028;2023-03-01T06:43:54;99418.53;;;-0.09;55.29
40982;BME280;26708;50.304;19.028;2023-03-01T06:46:03;99493.41;;;0.60;54.67
40982;BME280;26708;50.304;19.028;2023-03-01T06:48:09;99498.84;;;0.82;54.14
40982;BME280;26708;50.304;19.028;2023-03-01T06:50:14;99377.56;;;0.27;53.88
40982;BME280;26708;50.304;19.028;2023-03-01T06:52:20;99360.69;;;0.32;52.75
40982;BME280;26708;50.304;19.028;2023-03-01T06:54:27;99408.44;;;0.60;52.07
40982;BME280;26708;50.304;19.028;2023-03-01T06:56:32;99504.72;;;1.31;51.85
40982;BME280;26708;50.304;19.028;2023-03-01T06:58:38;99482.63;;;1.36;51.93
40982;BME280;26708;50.304;19.028;2023-03-01T07:00:42;99366.59;;;0.82;51.63
40982;BME280;26708;50.304;19.028;2023-03-01T07:02:47;99488.72;;;1.73;51.45
40982;BME280;26708;50.304;19.028;2023-03-01T07:04:52;99501.66;;;1.92;50.72
40982;BME280;26708;50.304;19.028;2023-03-01T07:06:57;99350.16;;;1.15;50.46
40982;BME280;26708;50.304;19.028;2023-03-01T07:09:02;99502.38;;;2.26;50.09
40982;BME280;26708;50.304;19.028;2023-03-01T07:11:10;99471.88;;;2.36;50.11
40982;BME280;26708;50.304;19.028;2023-03-01T07:13:14;99503.28;;;2.64;49.50
40982;BME280;26708;50.304;19.028;2023-03-01T07:15:19;99485.09;;;2.82;48.99
40982;BME280;26708;50.304;19.028;2023-03-01T07:17:24;99479.69;;;2.96;48.21
40982;BME280;26708;50.304;19.028;2023-03-01T07:19:29;99471.50;;;3.06;48.22
40982;BME280;26708;50.304;19.028;2023-03-01T07:21:33;99421.44;;;2.84;47.48
40982;BME280;26708;50.304;19.028;2023-03-01T07:23:40;99320.31;;;2.35;47.40
40982;BME280;26708;50.304;19.028;2023-03-01T07:25:51;99413.31;;;2.95;47.05
40982;BME280;26708;50.304;19.028;2023-03-01T07:27:59;99236.47;;;2.05;47.03
40982;BME280;26708;50.304;19.028;2023-03-01T07:30:07;99438.19;;;3.14;46.68
40982;BME280;26708;50.304;19.028;2023-03-01T07:32:13;99441.88;;;3.19;46.87
40982;BME280;26708;50.304;19.028;2023-03-01T07:34:17;99363.66;;;2.61;46.48
40982;BME280;26708;50.304;19.028;2023-03-01T07:36:23;99358.16;;;2.74;46.71
40982;BME280;26708;50.304;19.028;2023-03-01T07:38:28;99369.91;;;2.87;46.95
40982;BME280;26708;50.304;19.028;2023-03-01T07:40:33;99394.34;;;2.95;47.27
40982;BME280;26708;50.304;19.028;2023-03-01T07:42:40;99481.44;;;3.59;46.46
40982;BME280;26708;50.304;19.028;2023-03-01T07:44:47;99390.28;;;3.01;46.21
40982;BME280;26708;50.304;19.028;2023-03-01T07:46:51;99451.03;;;3.53;46.24
40982;BME280;26708;50.304;19.028;2023-03-01T07:48:58;99475.13;;;3.74;46.34
40982;BME280;26708;50.304;19.028;2023-03-01T07:51:05;99373.00;;;3.21;46.02
40982;BME280;26708;50.304;19.028;2023-03-01T07:53:10;99475.78;;;3.91;45.93
40982;BME280;26708;50.304;19.028;2023-03-01T07:55:16;99392.22;;;3.49;45.61
40982;BME280;26708;50.304;19.028;2023-03-01T07:57:21;99336.03;;;3.23;44.84
40982;BME280;26708;50.304;19.028;2023-03-01T07:59:25;99472.13;;;4.07;45.15
40982;BME280;26708;50.304;19.028;2023-03-01T08:01:34;99471.28;;;4.08;45.03
40982;BME280;26708;50.304;19.028;2023-03-01T08:03:39;99438.88;;;3.96;45.01
40982;BME280;26708;50.304;19.028;2023-03-01T08:05:44;99436.59;;;4.03;44.69
40982;BME280;26708;50.304;19.028;2023-03-01T08:07:50;99464.69;;;4.16;44.05
40982;BME280;26708;50.304;19.028;2023-03-01T08:09:54;99435.47;;;3.97;44.17
40982;BME280;26708;50.304;19.028;2023-03-01T08:11:59;99474.03;;;4.11;44.03
40982;BME280;26708;50.304;19.028;2023-03-01T08:14:06;99438.84;;;3.95;43.69
40982;BME280;26708;50.304;19.028;2023-03-01T08:16:13;99342.66;;;3.39;43.51
40982;BME280;26708;50.304;19.028;2023-03-01T08:18:21;99435.69;;;4.03;43.85
40982;BME280;26708;50.304;19.028;2023-03-01T08:20:27;99348.75;;;3.63;44.24
40982;BME280;26708;50.304;19.028;2023-03-01T08:22:31;99454.25;;;4.37;44.39
40982;BME280;26708;50.304;19.028;2023-03-01T08:24:36;99451.84;;;4.43;44.32
40982;BME280;26708;50.304;19.028;2023-03-01T08:26:41;99419.28;;;4.26;43.86
40982;BME280;26708;50.304;19.028;2023-03-01T08:28:48;99325.50;;;3.64;43.65
40982;BME280;26708;50.304;19.028;2023-03-01T08:30:53;99451.25;;;4.50;43.54
40982;BME280;26708;50.304;19.028;2023-03-01T08:32:58;99453.34;;;4.60;43.07
40982;BME280;26708;50.304;19.028;2023-03-01T08:35:07;99328.38;;;3.95;42.85
40982;BME280;26708;50.304;19.028;2023-03-01T08:37:12;99336.06;;;3.92;42.74
40982;BME280;26708;50.304;19.028;2023-03-01T08:39:19;99448.50;;;4.69;42.12
40982;BME280;26708;50.304;19.028;2023-03-01T08:41:25;99444.06;;;4.66;41.42
40982;BME280;26708;50.304;19.028;2023-03-01T08:43:29;99427.41;;;4.60;41.20
40982;BME280;26708;50.304;19.028;2023-03-01T08:45:35;99310.88;;;3.88;40.72
40982;BME280;26708;50.304;19.028;2023-03-01T08:47:39;99428.47;;;4.65;41.15
40982;BME280;26708;50.304;19.028;2023-03-01T08:49:44;99430.50;;;4.73;40.09
40982;BME280;26708;50.304;19.028;2023-03-01T08:51:52;99439.75;;;4.67;39.73
40982;BME280;26708;50.304;19.028;2023-03-01T08:53:56;99440.56;;;4.64;39.90
40982;BME280;26708;50.304;19.028;2023-03-01T08:56:01;99440.50;;;4.63;40.00
40982;BME280;26708;50.304;19.028;2023-03-01T08:58:07;99298.03;;;3.68;40.40
40982;BME280;26708;50.304;19.028;2023-03-01T09:00:12;99438.84;;;4.65;40.69
40982;BME280;26708;50.304;19.028;2023-03-01T09:02:18;99412.44;;;4.51;40.43
40982;BME280;26708;50.304;19.028;2023-03-01T09:04:23;99439.88;;;4.70;40.12
40982;BME280;26708;50.304;19.028;2023-03-01T09:06:30;99398.66;;;4.52;40.50
40982;BME280;26708;50.304;19.028;2023-03-01T09:08:40;99404.81;;;4.56;40.70
40982;BME280;26708;50.304;19.028;2023-03-01T09:10:47;99436.06;;;4.84;40.74
40982;BME280;26708;50.304;19.028;2023-03-01T09:12:51;99439.81;;;4.92;40.27
40982;BME280;26708;50.304;19.028;2023-03-01T09:14:56;99405.59;;;4.78;40.36
40982;BME280;26708;50.304;19.028;2023-03-01T09:17:02;99439.22;;;5.00;40.18
40982;BME280;26708;50.304;19.028;2023-03-01T09:19:06;99353.63;;;4.49;39.72
40982;BME280;26708;50.304;19.028;2023-03-01T09:21:15;99336.84;;;4.38;39.62
40982;BME280;26708;50.304;19.028;2023-03-01T09:23:22;99400.03;;;4.91;39.51
40982;BME280;26708;50.304;19.028;2023-03-01T09:25:29;99429.31;;;5.14;39.41
40982;BME280;26708;50.304;19.028;2023-03-01T09:27:34;99320.91;;;4.52;39.06
40982;BME280;26708;50.304;19.028;2023-03-01T09:29:39;99254.75;;;4.12;39.06
40982;BME280;26708;50.304;19.028;2023-03-01T09:31:45;99289.38;;;4.39;39.26
40982;BME280;26708;50.304;19.028;2023-03-01T09:33:52;99317.63;;;4.58;38.82
40982;BME280;26708;50.304;19.028;2023-03-01T09:35:59;99331.00;;;4.70;38.57
40982;BME280;26708;50.304;19.028;2023-03-01T09:38:04;99420.06;;;5.22;38.98
40982;BME280;26708;50.304;19.028;2023-03-01T09:40:14;99420.13;;;5.23;39.32
40982;BME280;26708;50.304;19.028;2023-03-01T09:42:24;99413.31;;;5.27;39.11
40982;BME280;26708;50.304;19.028;2023-03-01T09:44:38;99416.00;;;5.30;39.16
40982;BME280;26708;50.304;19.028;2023-03-01T09:46:50;99301.09;;;4.54;39.08
40982;BME280;26708;50.304;19.028;2023-03-01T09:49:01;99389.31;;;5.07;39.24
40982;BME280;26708;50.304;19.028;2023-03-01T09:51:16;99389.59;;;5.15;39.52
40982;BME280;26708;50.304;19.028;2023-03-01T09:53:31;99180.25;;;4.03;39.32
40982;BME280;26708;50.304;19.028;2023-03-01T09:55:43;99305.13;;;4.71;39.13
40982;BME280;26708;50.304;19.028;2023-03-01T09:57:57;99406.41;;;5.27;39.13
40982;BME280;26708;50.304;19.028;2023-03-01T10:00:26;99261.78;;;4.41;38.90
40982;BME280;26708;50.304;19.028;2023-03-01T10:02:44;99411.19;;;5.15;38.95
40982;BME280;26708;50.304;19.028;2023-03-01T10:04:58;99408.53;;;5.14;39.06
40982;BME280;26708;50.304;19.028;2023-03-01T10:07:27;99313.38;;;4.60;39.38
40982;BME280;26708;50.304;19.028;2023-03-01T10:09:44;99307.88;;;4.51;39.16
40982;BME280;26708;50.304;19.028;2023-03-01T10:11:53;99292.34;;;4.51;39.03
40982;BME280;26708;50.304;19.028;2023-03-01T10:14:15;99414.88;;;5.22;39.04
40982;BME280;26708;50.304;19.028;2023-03-01T10:16:43;99407.81;;;5.18;39.21
40982;BME280;26708;50.304;19.028;2023-03-01T10:18:59;99406.94;;;5.17;39.26
40982;BME280;26708;50.304;19.028;2023-03-01T10:21:14;99409.66;;;5.20;39.55
40982;BME280;26708;50.304;19.028;2023-03-01T10:23:23;99401.09;;;5.23;39.56
40982;BME280;26708;50.304;19.028;2023-03-01T10:25:45;99400.41;;;5.28;39.63
40982;BME280;26708;50.304;19.028;2023-03-01T10:28:02;99339.63;;;4.94;39.59
40982;BME280;26708;50.304;19.028;2023-03-01T10:30:22;99401.31;;;5.30;39.68
40982;BME280;26708;50.304;19.028;2023-03-01T10:32:36;99396.41;;;5.39;39.83
40982;BME280;26708;50.304;19.028;2023-03-01T10:34:40;99393.94;;;5.44;39.83
40982;BME280;26708;50.304;19.028;2023-03-01T10:36:49;99388.81;;;5.45;39.64
40982;BME280;26708;50.304;19.028;2023-03-01T10:38:57;99374.53;;;5.31;39.53
40982;BME280;26708;50.304;19.028;2023-03-01T10:41:05;99347.38;;;5.20;39.06
40982;BME280;26708;50.304;19.028;2023-03-01T10:43:12;99352.75;;;5.26;38.86
40982;BME280;26708;50.304;19.028;2023-03-01T10:45:31;99388.94;;;5.50;39.28
40982;BME280;26708;50.304;19.028;2023-03-01T10:47:37;99388.25;;;5.55;39.34
40982;BME280;26708;50.304;19.028;2023-03-01T10:49:59;99345.84;;;5.27;39.02
40982;BME280;26708;50.304;19.028;2023-03-01T10:52:18;99304.63;;;5.08;39.21
40982;BME280;26708;50.304;19.028;2023-03-01T10:54:29;99178.03;;;4.42;38.89
40982;BME280;26708;50.304;19.028;2023-03-01T10:56:47;99383.06;;;5.55;38.70
40982;BME280;26708;50.304;19.028;2023-03-01T10:58:59;99375.19;;;5.52;38.80
40982;BME280;26708;50.304;19.028;2023-03-01T11:01:25;99345.28;;;5.37;39.10
40982;BME280;26708;50.304;19.028;2023-03-01T11:03:36;99261.88;;;4.95;39.00
40982;BME280;26708;50.304;19.028;2023-03-01T11:05:55;99338.78;;;5.51;39.32
40982;BME280;26708;50.304;19.028;2023-03-01T11:08:02;99334.44;;;5.50;39.07
40982;BME280;26708;50.304;19.028;2023-03-01T11:10:17;99360.16;;;5.70;39.26
40982;BME280;26708;50.304;19.028;2023-03-01T11:12:24;99330.34;;;5.58;39.25
40982;BME280;26708;50.304;19.028;2023-03-01T11:14:36;99360.22;;;5.72;38.47
40982;BME280;26708;50.304;19.028;2023-03-01T11:16:48;99280.72;;;5.18;38.75